Time;durP1;ratioP1;P1;durP2;ratioP2;P2;SDS_P1;SDS_P2;PMS_P1;PMS_P2;Temp;Humidity;BMP_temperature;BMP_pressure;BME280_temperature;BME280_humidity;BME280_pressure;Samples;Min_cycle;Max_cycle;Signal;HPM_P1;HPM_P2
2023/01/27 00:01:16;;;;;;;;;;;27.00;99.90;;;;;;5030533;28;19919;-72
2023/01/27 00:03:43;;;;;;;;;;;27.10;99.90;;;;;;5029936;28;20002;-72
2023/01/27 00:06:11;;;;;;;;;;;27.30;99.90;;;;;;5030286;28;19917;-71
2023/01/27 00:08:38;;;;;;;;;;;27.50;99.90;;;;;;5038631;28;19917;-71
2023/01/27 00:13:49;;;;;;;;;;;27.50;99.90;;;;;;5032331;28;19924;-71
2023/01/27 00:16:16;;;;;;;;;;;27.50;99.90;;;;;;5029721;28;19920;-71
2023/01/27 00:18:43;;;;;;;;;;;27.70;99.90;;;;;;5030154;28;20511;-70
2023/01/27 00:26:40;;;;;;;;;;;28.20;99.90;;;;;;5029230;28;19966;-71
2023/01/27 00:29:07;;;;;;;;;;;28.50;99.90;;;;;;5031532;28;19967;-71
2023/01/27 00:34:18;;;;;;;;;;;29.10;99.90;;;;;;5030547;28;19923;-72
2023/01/27 00:36:45;;;;;;;;;;;29.30;99.90;;;;;;5031020;28;19927;-71
2023/01/27 00:39:12;;;;;;;;;;;29.30;99.90;;;;;;5029532;28;20272;-71
2023/01/27 00:41:39;;;;;;;;;;;29.30;99.90;;;;;;5031020;28;20383;-72
2023/01/27 00:44:06;;;;;;;;;;;29.40;99.90;;;;;;5035039;28;20002;-71
2023/01/27 00:46:33;;;;;;;;;;;29.70;99.90;;;;;;5038492;28;19908;-72
2023/01/27 00:49:00;;;;;;;;;;;29.70;99.90;;;;;;5036833;28;19913;-72
2023/01/27 00:51:26;;;;;;;;;;;29.50;99.90;;;;;;5034465;28;19909;-72
2023/01/27 00:53:58;;;;;;;;;;;29.40;99.90;;;;;;5032457;28;19916;-71
2023/01/27 00:56:27;;;;;;;;;;;29.30;99.90;;;;;;5033798;28;19924;-70
2023/01/27 00:58:53;;;;;;;;;;;29.20;99.90;;;;;;5033117;28;19921;-71
2023/01/27 01:01:20;;;;;;;;;;;29.10;99.90;;;;;;5032461;28;19920;-71
2023/01/27 01:03:47;;;;;;;;;;;29.00;99.90;;;;;;5033745;28;19917;-71
2023/01/27 01:06:14;;;;;;;;;;;28.90;99.90;;;;;;5033306;28;19917;-72
2023/01/27 01:08:45;;;;;;;;;;;28.70;99.90;;;;;;5034091;28;20330;-71
2023/01/27 01:11:14;;;;;;;;;;;28.80;99.90;;;;;;5031990;28;19921;-72
2023/01/27 01:13:42;;;;;;;;;;;28.80;99.90;;;;;;5032924;28;19923;-71
2023/01/27 01:16:10;;;;;;;;;;;29.00;99.90;;;;;;5031532;28;19924;-71
2023/01/27 01:18:38;;;;;;;;;;;29.00;99.90;;;;;;5032230;28;19924;-71
2023/01/27 01:21:07;;;;;;;;;;;29.10;99.90;;;;;;5032384;28;19927;-71
2023/01/27 01:23:37;;;;;;;;;;;29.20;99.90;;;;;;5032157;28;20260;-71
2023/01/27 01:26:04;;;;;;;;;;;29.30;99.90;;;;;;5033243;28;19917;-72
2023/01/27 01:28:35;;;;;;;;;;;29.20;99.90;;;;;;5032291;28;20403;-72
2023/01/27 01:31:06;;;;;;;;;;;29.20;99.90;;;;;;5032181;28;19959;-72
2023/01/27 01:33:32;;;;;;;;;;;29.10;99.90;;;;;;5032238;28;19964;-71
2023/01/27 01:36:06;;;;;;;;;;;29.20;99.90;;;;;;5033291;28;19968;-72
2023/01/27 01:38:33;;;;;;;;;;;29.20;99.90;;;;;;5032472;28;19923;-71
2023/01/27 01:41:00;;;;;;;;;;;29.30;99.90;;;;;;5032628;28;19919;-72
2023/01/27 01:43:27;;;;;;;;;;;29.60;99.90;;;;;;5033366;28;19938;-72
2023/01/27 01:45:54;;;;;;;;;;;29.80;99.90;;;;;;5032747;28;19912;-72
2023/01/27 01:48:21;;;;;;;;;;;29.90;99.90;;;;;;5032307;28;19916;-72
2023/01/27 01:50:51;;;;;;;;;;;29.90;99.90;;;;;;5033410;28;19924;-72
2023/01/27 01:53:19;;;;;;;;;;;29.90;99.90;;;;;;5031981;28;19916;-72
2023/01/27 01:55:47;;;;;;;;;;;29.70;99.90;;;;;;5032223;28;20039;-72
2023/01/27 01:58:14;;;;;;;;;;;29.50;99.90;;;;;;5032536;28;19916;-72
2023/01/27 02:00:41;;;;;;;;;;;29.50;99.90;;;;;;5032934;28;19923;-71
2023/01/27 02:03:08;;;;;;;;;;;29.40;99.90;;;;;;5032288;28;19917;-71
2023/01/27 02:05:37;;;;;;;;;;;29.40;99.90;;;;;;5033187;28;21892;-71
2023/01/27 02:08:06;;;;;;;;;;;29.40;99.90;;;;;;5032168;28;19982;-72
2023/01/27 02:10:33;;;;;;;;;;;29.40;99.90;;;;;;5031554;28;22322;-73
2023/01/27 02:13:04;;;;;;;;;;;29.40;99.90;;;;;;5043323;28;19912;-72
2023/01/27 02:15:31;;;;;;;;;;;29.40;99.90;;;;;;5033129;28;20540;-72
2023/01/27 02:17:59;;;;;;;;;;;29.40;99.90;;;;;;5031008;28;19921;-72
2023/01/27 02:20:25;;;;;;;;;;;29.30;99.90;;;;;;5032462;28;19913;-72
2023/01/27 02:23:15;;;;;;;;;;;29.30;99.90;;;;;;5031325;28;20540;-72
2023/01/27 02:25:44;;;;;;;;;;;29.20;99.90;;;;;;5013546;28;20275;-72
2023/01/27 02:28:11;;;;;;;;;;;29.10;99.90;;;;;;5032775;28;19917;-72
2023/01/27 02:30:37;;;;;;;;;;;28.80;99.90;;;;;;5032347;28;19996;-73
2023/01/27 02:33:10;;;;;;;;;;;28.70;99.90;;;;;;5032035;28;20681;-73
2023/01/27 02:35:40;;;;;;;;;;;28.60;99.90;;;;;;5032146;28;19927;-71
2023/01/27 02:38:08;;;;;;;;;;;28.50;99.90;;;;;;5032469;28;19916;-71
2023/01/27 02:40:36;;;;;;;;;;;28.50;99.90;;;;;;5031386;28;19917;-72
2023/01/27 02:43:03;;;;;;;;;;;28.30;99.90;;;;;;5033115;28;20375;-72
2023/01/27 02:45:30;;;;;;;;;;;28.30;99.90;;;;;;5031597;28;19916;-72
2023/01/27 02:47:57;;;;;;;;;;;28.40;99.90;;;;;;5031495;28;19956;-72
2023/01/27 02:50:23;;;;;;;;;;;28.50;99.90;;;;;;5030933;28;19908;-72
2023/01/27 02:52:50;;;;;;;;;;;28.70;99.90;;;;;;5031248;28;19913;-72
2023/01/27 02:55:17;;;;;;;;;;;28.90;99.90;;;;;;5031038;28;19912;-71
2023/01/27 02:57:43;;;;;;;;;;;29.70;99.90;;;;;;5030765;28;19924;-72
2023/01/27 03:00:12;;;;;;;;;;;30.70;99.90;;;;;;5031209;28;19916;-72
2023/01/27 03:02:39;;;;;;;;;;;31.40;99.90;;;;;;5032170;28;20317;-72
2023/01/27 03:05:06;;;;;;;;;;;32.10;99.10;;;;;;5030016;28;19920;-71
2023/01/27 03:07:33;;;;;;;;;;;32.50;97.60;;;;;;5037447;28;19909;-70
2023/01/27 03:10:00;;;;;;;;;;;32.90;98.10;;;;;;5035954;28;20635;-70
2023/01/27 03:12:26;;;;;;;;;;;33.00;97.10;;;;;;5031529;28;19954;-71
2023/01/27 03:20:22;;;;;;;;;;;32.20;98.10;;;;;;5031174;28;19919;-71
2023/01/27 03:22:49;;;;;;;;;;;31.70;98.40;;;;;;5030768;28;19928;-72
2023/01/27 03:25:16;;;;;;;;;;;31.40;98.50;;;;;;5030915;28;19928;-71
2023/01/27 03:27:43;;;;;;;;;;;31.30;99.30;;;;;;5032132;28;20356;-72
2023/01/27 03:30:10;;;;;;;;;;;31.40;99.20;;;;;;5030250;28;19909;-72
2023/01/27 03:32:37;;;;;;;;;;;31.70;98.80;;;;;;5030679;28;19916;-71
2023/01/27 03:35:04;;;;;;;;;;;32.00;98.20;;;;;;5028734;28;21951;-70
2023/01/27 03:48:35;;;;;;;;;;;33.00;96.80;;;;;;5030872;28;19990;-71
2023/01/27 03:51:02;;;;;;;;;;;32.40;97.10;;;;;;5031073;28;20515;-71
2023/01/27 03:53:29;;;;;;;;;;;31.90;97.40;;;;;;5030848;28;20552;-70
2023/01/27 03:55:56;;;;;;;;;;;31.90;97.50;;;;;;5030067;28;19917;-71
2023/01/27 03:58:25;;;;;;;;;;;32.00;98.50;;;;;;5031630;28;19920;-71
2023/01/27 04:00:52;;;;;;;;;;;32.20;98.00;;;;;;5030665;28;19916;-71
2023/01/27 04:08:50;;;;;;;;;;;32.50;97.30;;;;;;5059330;28;19958;-71
2023/01/27 04:14:02;;;;;;;;;;;32.60;97.20;;;;;;5055377;28;20369;-71
2023/01/27 04:16:29;;;;;;;;;;;32.70;97.10;;;;;;5062010;28;20314;-71
2023/01/27 04:18:56;;;;;;;;;;;32.60;96.80;;;;;;5067023;28;20379;-72
2023/01/27 04:21:26;;;;;;;;;;;32.30;96.50;;;;;;5055771;28;19913;-71
2023/01/27 04:23:53;;;;;;;;;;;31.80;96.80;;;;;;5036815;28;20403;-71
2023/01/27 04:26:20;;;;;;;;;;;31.50;97.30;;;;;;5033181;28;19917;-71
2023/01/27 04:28:46;;;;;;;;;;;31.40;97.40;;;;;;5033025;28;20019;-72
2023/01/27 04:31:14;;;;;;;;;;;31.10;97.60;;;;;;5033824;28;19998;-72
2023/01/27 04:33:47;;;;;;;;;;;30.90;97.90;;;;;;5035307;28;19912;-72
2023/01/27 04:36:14;;;;;;;;;;;30.80;98.10;;;;;;5032074;28;20398;-72
2023/01/27 04:38:41;;;;;;;;;;;30.80;98.20;;;;;;5033446;28;19913;-72
2023/01/27 04:41:07;;;;;;;;;;;30.70;98.40;;;;;;5034386;28;20383;-72
2023/01/27 04:43:38;;;;;;;;;;;30.70;98.30;;;;;;5034199;28;20390;-72
2023/01/27 04:46:05;;;;;;;;;;;30.60;98.80;;;;;;5034557;28;20443;-73
2023/01/27 04:48:31;;;;;;;;;;;30.50;98.80;;;;;;5033379;28;19974;-71
2023/01/27 04:50:58;;;;;;;;;;;30.50;98.80;;;;;;5033725;28;20425;-72
2023/01/27 04:53:25;;;;;;;;;;;30.50;98.90;;;;;;5033421;28;19999;-72
2023/01/27 04:55:52;;;;;;;;;;;30.60;98.90;;;;;;5033591;28;20964;-72
2023/01/27 04:58:18;;;;;;;;;;;30.50;99.00;;;;;;5035674;28;19916;-71
2023/01/27 05:00:45;;;;;;;;;;;30.50;98.60;;;;;;5035160;28;19920;-72
2023/01/27 05:03:12;;;;;;;;;;;30.50;98.60;;;;;;5033964;28;19927;-72
2023/01/27 05:05:42;;;;;;;;;;;30.40;98.80;;;;;;5034664;28;20298;-71
2023/01/27 05:08:09;;;;;;;;;;;30.30;98.80;;;;;;5034923;28;19924;-72
2023/01/27 05:10:37;;;;;;;;;;;30.10;99.00;;;;;;5037440;28;19939;-71
2023/01/27 05:13:03;;;;;;;;;;;30.10;99.10;;;;;;5034143;28;20304;-71
2023/01/27 05:15:30;;;;;;;;;;;30.10;99.10;;;;;;5040660;28;19950;-71
2023/01/27 05:17:57;;;;;;;;;;;30.10;99.20;;;;;;5034100;28;19912;-71
2023/01/27 05:20:24;;;;;;;;;;;30.10;99.00;;;;;;5033411;28;19917;-72
2023/01/27 05:22:51;;;;;;;;;;;30.20;99.00;;;;;;5034357;28;19916;-72
2023/01/27 05:25:17;;;;;;;;;;;30.10;98.90;;;;;;5032426;28;19920;-72
2023/01/27 05:27:44;;;;;;;;;;;30.10;99.00;;;;;;5035034;28;19999;-72
2023/01/27 05:30:11;;;;;;;;;;;30.10;99.10;;;;;;5032645;28;19919;-71
2023/01/27 05:32:37;;;;;;;;;;;30.00;99.30;;;;;;5032984;28;20032;-71
2023/01/27 05:35:04;;;;;;;;;;;29.90;99.70;;;;;;5032597;28;19928;-71
2023/01/27 05:37:31;;;;;;;;;;;29.70;99.90;;;;;;5034377;28;19924;-71
2023/01/27 05:40:01;;;;;;;;;;;29.60;99.90;;;;;;5032191;28;19928;-68
2023/01/27 05:42:28;;;;;;;;;;;29.50;99.90;;;;;;5031017;28;19923;-71
2023/01/27 05:44:54;;;;;;;;;;;29.40;99.90;;;;;;5031827;28;20390;-70
2023/01/27 05:47:21;;;;;;;;;;;29.50;99.90;;;;;;5042119;28;19917;-72
2023/01/27 05:49:48;;;;;;;;;;;29.40;99.90;;;;;;5037906;28;19916;-70
2023/01/27 05:52:15;;;;;;;;;;;29.40;99.90;;;;;;5031968;28;19916;-71
2023/01/27 05:54:42;;;;;;;;;;;29.40;99.90;;;;;;5035373;28;19938;-71
2023/01/27 05:57:08;;;;;;;;;;;29.40;99.90;;;;;;5036330;28;19982;-72
2023/01/27 05:59:39;;;;;;;;;;;29.30;99.90;;;;;;5033641;28;19958;-71
2023/01/27 06:02:07;;;;;;;;;;;29.20;99.90;;;;;;5032105;28;19913;-71
2023/01/27 06:04:33;;;;;;;;;;;29.20;99.90;;;;;;5034071;28;19924;-70
2023/01/27 06:07:00;;;;;;;;;;;29.30;99.90;;;;;;5033969;28;19913;-71
2023/01/27 06:09:27;;;;;;;;;;;29.20;99.90;;;;;;5032920;28;20322;-71
2023/01/27 06:11:53;;;;;;;;;;;29.10;99.90;;;;;;5032680;28;19919;-71
2023/01/27 06:14:20;;;;;;;;;;;29.00;99.90;;;;;;5032551;28;19913;-70
2023/01/27 06:16:47;;;;;;;;;;;29.00;99.90;;;;;;5032905;28;19920;-70
2023/01/27 06:19:14;;;;;;;;;;;28.90;99.90;;;;;;5032918;28;20382;-71
2023/01/27 06:21:40;;;;;;;;;;;28.90;99.90;;;;;;5032948;28;19920;-69
2023/01/27 06:24:07;;;;;;;;;;;28.70;99.90;;;;;;5032519;28;19997;-70
2023/01/27 06:26:34;;;;;;;;;;;28.60;99.90;;;;;;5032524;28;19917;-70
2023/01/27 06:29:01;;;;;;;;;;;28.50;99.90;;;;;;5032547;28;19916;-70
2023/01/27 06:31:28;;;;;;;;;;;28.50;99.90;;;;;;5032045;28;19964;-71
2023/01/27 06:33:54;;;;;;;;;;;28.50;99.90;;;;;;5033235;28;20355;-70
2023/01/27 06:36:22;;;;;;;;;;;28.40;99.90;;;;;;5031147;28;19966;-70
2023/01/27 06:38:49;;;;;;;;;;;28.40;99.90;;;;;;5033523;28;19916;-70
2023/01/27 06:41:15;;;;;;;;;;;28.40;99.90;;;;;;5031847;28;20178;-70
2023/01/27 06:43:42;;;;;;;;;;;28.40;99.90;;;;;;5033916;28;19924;-70
2023/01/27 06:46:09;;;;;;;;;;;28.40;99.90;;;;;;5032572;28;19917;-70
2023/01/27 06:48:36;;;;;;;;;;;28.40;99.90;;;;;;5032363;28;19959;-71
2023/01/27 06:51:03;;;;;;;;;;;28.30;99.90;;;;;;5032118;28;19916;-72
2023/01/27 06:53:31;;;;;;;;;;;28.30;99.90;;;;;;5032842;28;19925;-71
2023/01/27 06:55:58;;;;;;;;;;;28.20;99.90;;;;;;5031324;28;20006;-72
2023/01/27 06:58:25;;;;;;;;;;;28.20;99.90;;;;;;5034134;28;20372;-71
2023/01/27 07:00:52;;;;;;;;;;;28.20;99.90;;;;;;5031334;28;20260;-71
2023/01/27 07:03:19;;;;;;;;;;;28.20;99.90;;;;;;5031201;28;19916;-72
2023/01/27 07:05:45;;;;;;;;;;;28.20;99.90;;;;;;5031062;28;19924;-70
2023/01/27 07:08:12;;;;;;;;;;;28.10;99.90;;;;;;5039684;28;19912;-70
2023/01/27 07:10:39;;;;;;;;;;;27.90;99.90;;;;;;5032190;28;20003;-69
2023/01/27 07:13:05;;;;;;;;;;;27.80;99.90;;;;;;5032207;28;19958;-70
2023/01/27 07:15:32;;;;;;;;;;;27.60;99.90;;;;;;5030650;28;20792;-70
2023/01/27 07:18:02;;;;;;;;;;;27.50;99.90;;;;;;5032470;28;20068;-71
2023/01/27 07:20:29;;;;;;;;;;;27.40;99.90;;;;;;5031097;28;19916;-71
2023/01/27 07:22:57;;;;;;;;;;;27.30;99.90;;;;;;5048275;28;19920;-71
2023/01/27 07:25:23;;;;;;;;;;;27.30;99.90;;;;;;5030994;28;19912;-70
2023/01/27 07:27:50;;;;;;;;;;;27.30;99.90;;;;;;5032721;28;19912;-69
2023/01/27 07:30:17;;;;;;;;;;;27.20;99.90;;;;;;5031359;28;19920;-70
2023/01/27 07:32:43;;;;;;;;;;;27.20;99.90;;;;;;5032180;28;20094;-71
2023/01/27 07:35:10;;;;;;;;;;;27.10;99.90;;;;;;5030737;28;20486;-70
2023/01/27 07:37:37;;;;;;;;;;;27.10;99.90;;;;;;5031601;28;19924;-71
2023/01/27 07:40:03;;;;;;;;;;;27.00;99.90;;;;;;5031353;28;19923;-72
2023/01/27 07:42:31;;;;;;;;;;;26.90;99.90;;;;;;5032573;28;20395;-71
2023/01/27 07:44:57;;;;;;;;;;;26.70;99.90;;;;;;5031331;28;20015;-73
2023/01/27 07:47:24;;;;;;;;;;;26.70;99.90;;;;;;5031468;28;19956;-71
2023/01/27 07:49:51;;;;;;;;;;;26.60;99.90;;;;;;5030701;28;19917;-71
2023/01/27 07:52:17;;;;;;;;;;;26.60;99.90;;;;;;5030770;28;20334;-72
2023/01/27 07:54:44;;;;;;;;;;;26.50;99.90;;;;;;5031263;28;20389;-70
2023/01/27 07:57:11;;;;;;;;;;;26.50;99.90;;;;;;5030874;28;19924;-71
2023/01/27 07:59:38;;;;;;;;;;;26.30;99.90;;;;;;5032213;28;20583;-70
2023/01/27 08:02:05;;;;;;;;;;;26.30;99.90;;;;;;5031932;28;19913;-71
2023/01/27 08:04:32;;;;;;;;;;;26.30;99.90;;;;;;5033152;28;19913;-70
2023/01/27 08:06:58;;;;;;;;;;;26.30;99.90;;;;;;5033647;28;20007;-70
2023/01/27 08:09:25;;;;;;;;;;;26.20;99.90;;;;;;5032885;28;19920;-70
2023/01/27 08:11:52;;;;;;;;;;;26.20;99.90;;;;;;5036873;28;19912;-71
2023/01/27 08:14:19;;;;;;;;;;;26.10;99.90;;;;;;5033479;28;19917;-70
2023/01/27 08:16:45;;;;;;;;;;;26.00;99.90;;;;;;5030457;28;19916;-70
2023/01/27 08:19:12;;;;;;;;;;;26.00;99.90;;;;;;5031857;28;20043;-71
2023/01/27 08:21:39;;;;;;;;;;;25.90;99.90;;;;;;5030215;28;20274;-72
2023/01/27 08:24:06;;;;;;;;;;;25.90;99.90;;;;;;5029682;28;19916;-71
2023/01/27 08:26:32;;;;;;;;;;;25.80;99.90;;;;;;5030278;28;19952;-71
2023/01/27 08:28:59;;;;;;;;;;;25.80;99.90;;;;;;5032291;28;19912;-72
2023/01/27 08:31:26;;;;;;;;;;;25.80;99.90;;;;;;5030162;28;19917;-70
2023/01/27 08:33:53;;;;;;;;;;;25.80;99.90;;;;;;5030321;28;19928;-71
2023/01/27 08:36:20;;;;;;;;;;;25.80;99.90;;;;;;5030294;28;19924;-71
2023/01/27 08:38:50;;;;;;;;;;;25.70;99.90;;;;;;5030585;28;20043;-71
2023/01/27 08:41:18;;;;;;;;;;;25.70;99.90;;;;;;5030387;28;19993;-70
2023/01/27 08:43:45;;;;;;;;;;;25.70;99.90;;;;;;5033540;28;20329;-71
2023/01/27 08:46:12;;;;;;;;;;;25.60;99.90;;;;;;5030273;28;20267;-71
2023/01/27 08:48:39;;;;;;;;;;;25.60;99.90;;;;;;5030827;28;19917;-70
2023/01/27 08:51:06;;;;;;;;;;;25.60;99.90;;;;;;5030616;28;19946;-70
2023/01/27 08:53:33;;;;;;;;;;;25.50;99.90;;;;;;5031196;28;19976;-72
2023/01/27 08:56:02;;;;;;;;;;;25.50;99.90;;;;;;5030014;28;19925;-70
2023/01/27 08:58:29;;;;;;;;;;;25.50;99.90;;;;;;5031744;28;19920;-72
2023/01/27 09:00:59;;;;;;;;;;;25.40;99.90;;;;;;5030694;28;19940;-71
2023/01/27 09:03:25;;;;;;;;;;;25.40;99.90;;;;;;5032617;28;19959;-71
2023/01/27 09:05:52;;;;;;;;;;;25.40;99.90;;;;;;5034077;28;22798;-72
2023/01/27 09:08:19;;;;;;;;;;;25.30;99.90;;;;;;5035009;28;20402;-70
2023/01/27 09:10:45;;;;;;;;;;;25.30;99.90;;;;;;5042558;28;20030;-71
2023/01/27 09:13:12;;;;;;;;;;;25.30;99.90;;;;;;5034653;28;19928;-71
2023/01/27 09:15:39;;;;;;;;;;;25.20;99.90;;;;;;5033365;28;20632;-72
2023/01/27 09:18:06;;;;;;;;;;;25.30;99.90;;;;;;5034275;28;19916;-71
2023/01/27 09:20:35;;;;;;;;;;;25.20;99.90;;;;;;5033889;28;19913;-70
2023/01/27 09:23:03;;;;;;;;;;;25.20;99.90;;;;;;5034116;28;20499;-72
2023/01/27 09:25:30;;;;;;;;;;;25.10;99.90;;;;;;5033079;28;19925;-72
2023/01/27 09:27:57;;;;;;;;;;;25.10;99.90;;;;;;5033660;28;20414;-70
2023/01/27 09:30:25;;;;;;;;;;;25.10;99.90;;;;;;5033276;28;19920;-72
2023/01/27 09:32:52;;;;;;;;;;;25.10;99.90;;;;;;5032608;28;19966;-71
2023/01/27 09:35:18;;;;;;;;;;;25.10;99.90;;;;;;5032715;28;20014;-71
2023/01/27 09:37:51;;;;;;;;;;;25.00;99.90;;;;;;5033162;28;19964;-71
2023/01/27 09:40:25;;;;;;;;;;;25.00;99.90;;;;;;5033362;28;20015;-70
2023/01/27 09:42:59;;;;;;;;;;;25.00;99.90;;;;;;5033555;28;19923;-71
2023/01/27 09:45:26;;;;;;;;;;;25.00;99.90;;;;;;5032444;28;19954;-71
2023/01/27 09:48:27;;;;;;;;;;;25.00;99.90;;;;;;5033306;28;19966;-71
2023/01/27 09:50:54;;;;;;;;;;;25.00;99.90;;;;;;4973623;28;20427;-72
2023/01/27 09:53:24;;;;;;;;;;;25.00;99.90;;;;;;5022193;28;19912;-72
2023/01/27 09:56:08;;;;;;;;;;;25.00;99.90;;;;;;5032175;28;19917;-72
2023/01/27 09:58:53;;;;;;;;;;;25.00;99.90;;;;;;5032914;28;20552;-70
2023/01/27 10:01:19;;;;;;;;;;;25.00;99.90;;;;;;5031564;28;20033;-73
2023/01/27 10:03:59;;;;;;;;;;;25.00;99.90;;;;;;5033260;28;19923;-72
2023/01/27 10:06:45;;;;;;;;;;;25.00;99.90;;;;;;5032115;28;19925;-71
2023/01/27 10:09:34;;;;;;;;;;;25.00;99.90;;;;;;5032253;28;19936;-72
2023/01/27 10:12:18;;;;;;;;;;;25.00;99.90;;;;;;5031965;28;19917;-71
2023/01/27 10:14:45;;;;;;;;;;;25.00;99.90;;;;;;5030919;28;20008;-71
2023/01/27 10:17:20;;;;;;;;;;;24.90;99.90;;;;;;5031313;28;19935;-71
2023/01/27 10:19:46;;;;;;;;;;;24.90;99.90;;;;;;5032672;28;19916;-71
2023/01/27 10:22:13;;;;;;;;;;;24.90;99.90;;;;;;5032700;28;20066;-72
2023/01/27 10:24:58;;;;;;;;;;;24.90;99.90;;;;;;5032514;28;20701;-71
2023/01/27 10:27:26;;;;;;;;;;;24.90;99.90;;;;;;5032720;28;20003;-71
2023/01/27 10:29:55;;;;;;;;;;;24.80;99.90;;;;;;5030843;28;19954;-73
2023/01/27 10:32:27;;;;;;;;;;;24.80;99.90;;;;;;5031904;28;19913;-70
2023/01/27 10:35:02;;;;;;;;;;;24.70;99.90;;;;;;5030346;28;20134;-72
2023/01/27 10:37:32;;;;;;;;;;;24.70;99.90;;;;;;5031443;28;20371;-70
2023/01/27 10:40:04;;;;;;;;;;;24.70;99.90;;;;;;5032994;28;19913;-71
2023/01/27 10:42:35;;;;;;;;;;;24.60;99.90;;;;;;5031295;28;20390;-72
2023/01/27 10:45:31;;;;;;;;;;;24.60;99.90;;;;;;5032061;28;20019;-72
2023/01/27 10:48:10;;;;;;;;;;;24.60;99.90;;;;;;4997539;28;20003;-71
2023/01/27 10:50:40;;;;;;;;;;;24.50;99.90;;;;;;5030996;28;19912;-72
2023/01/27 10:53:13;;;;;;;;;;;24.40;99.90;;;;;;5031955;28;20363;-71
2023/01/27 10:55:45;;;;;;;;;;;24.40;99.90;;;;;;5031580;28;19916;-72
2023/01/27 10:58:24;;;;;;;;;;;24.40;99.90;;;;;;5033119;28;20424;-70
2023/01/27 11:00:53;;;;;;;;;;;24.40;99.90;;;;;;5030455;28;19916;-71
2023/01/27 11:03:22;;;;;;;;;;;24.30;99.90;;;;;;5032235;28;20976;-71
2023/01/27 11:05:52;;;;;;;;;;;24.30;99.90;;;;;;5032033;28;19929;-70
2023/01/27 11:08:22;;;;;;;;;;;24.40;99.90;;;;;;5038226;28;19912;-72
2023/01/27 11:13:38;;;;;;;;;;;24.40;99.90;;;;;;5031740;28;20442;-71
2023/01/27 11:16:06;;;;;;;;;;;24.40;99.90;;;;;;5030969;28;19931;-72
2023/01/27 11:18:35;;;;;;;;;;;24.20;99.90;;;;;;5030945;28;19920;-71
2023/01/27 11:21:04;;;;;;;;;;;24.20;99.90;;;;;;5031722;28;19935;-72
2023/01/27 11:23:34;;;;;;;;;;;24.20;99.90;;;;;;5031244;28;20834;-72
2023/01/27 11:26:07;;;;;;;;;;;24.10;99.90;;;;;;5030538;28;19920;-72
2023/01/27 11:28:36;;;;;;;;;;;24.10;99.90;;;;;;5032060;28;20393;-72
2023/01/27 11:31:31;;;;;;;;;;;24.10;99.90;;;;;;5045409;28;20955;-71
2023/01/27 11:34:04;;;;;;;;;;;24.10;99.90;;;;;;5029802;28;19919;-71
2023/01/27 11:36:32;;;;;;;;;;;24.00;99.90;;;;;;5030895;28;19931;-70
2023/01/27 11:39:00;;;;;;;;;;;24.00;99.90;;;;;;5030615;28;19917;-71
2023/01/27 11:41:27;;;;;;;;;;;24.00;99.90;;;;;;5030838;28;19923;-71
2023/01/27 11:43:54;;;;;;;;;;;23.90;99.90;;;;;;5030211;28;20268;-71
2023/01/27 11:46:24;;;;;;;;;;;24.00;99.90;;;;;;5029929;28;19916;-70
2023/01/27 11:48:54;;;;;;;;;;;24.00;99.90;;;;;;5030325;28;19920;-71
2023/01/27 11:51:25;;;;;;;;;;;24.10;99.90;;;;;;5030101;28;19917;-72
2023/01/27 11:54:04;;;;;;;;;;;24.00;99.90;;;;;;5031098;28;22061;-71
2023/01/27 11:56:31;;;;;;;;;;;24.00;99.90;;;;;;5030955;28;19931;-71
2023/01/27 11:59:03;;;;;;;;;;;24.00;99.90;;;;;;5033186;28;21591;-72
2023/01/27 12:01:43;;;;;;;;;;;23.90;99.90;;;;;;5031634;28;19916;-74
2023/01/27 12:04:19;;;;;;;;;;;24.00;99.90;;;;;;5047006;28;19924;-71
2023/01/27 12:07:15;;;;;;;;;;;23.90;99.90;;;;;;5030952;28;19916;-74
2023/01/27 12:09:42;;;;;;;;;;;23.90;99.90;;;;;;5024338;28;19962;-76
2023/01/27 12:12:14;;;;;;;;;;;23.80;99.90;;;;;;5041529;28;19917;-74
2023/01/27 12:14:54;;;;;;;;;;;23.80;99.90;;;;;;5030780;28;19912;-77
2023/01/27 12:17:30;;;;;;;;;;;23.70;99.90;;;;;;5035116;28;19931;-68
2023/01/27 12:20:00;;;;;;;;;;;23.70;99.90;;;;;;5036444;28;19952;-77
2023/01/27 12:22:30;;;;;;;;;;;23.70;99.90;;;;;;5046823;28;20347;-74
2023/01/27 12:25:17;;;;;;;;;;;23.60;99.90;;;;;;5030679;28;20588;-75
2023/01/27 12:27:49;;;;;;;;;;;23.60;99.90;;;;;;5031368;28;19983;-74
2023/01/27 12:30:20;;;;;;;;;;;23.60;99.90;;;;;;5030533;28;19956;-71
2023/01/27 12:32:48;;;;;;;;;;;23.50;99.90;;;;;;5030761;28;19912;-75
2023/01/27 12:35:17;;;;;;;;;;;23.50;99.90;;;;;;5030712;28;19925;-70
2023/01/27 12:37:45;;;;;;;;;;;23.50;99.90;;;;;;5031196;28;20122;-75
2023/01/27 12:40:30;;;;;;;;;;;23.60;99.90;;;;;;5034823;28;20264;-71
2023/01/27 12:43:20;;;;;;;;;;;23.50;99.90;;;;;;5033799;28;19937;-72
2023/01/27 12:46:04;;;;;;;;;;;23.60;99.90;;;;;;5033126;28;21921;-71
2023/01/27 12:48:32;;;;;;;;;;;23.60;99.90;;;;;;5048730;28;19923;-71
2023/01/27 12:51:13;;;;;;;;;;;23.50;99.90;;;;;;5034268;28;19916;-70
2023/01/27 12:53:42;;;;;;;;;;;23.50;99.90;;;;;;5034823;28;19912;-70
2023/01/27 12:56:17;;;;;;;;;;;23.50;99.90;;;;;;5032334;28;19924;-70
2023/01/27 12:58:57;;;;;;;;;;;23.50;99.90;;;;;;5036391;28;19924;-70
2023/01/27 13:01:24;;;;;;;;;;;23.50;99.90;;;;;;5039173;28;20510;-71
2023/01/27 13:03:56;;;;;;;;;;;23.50;99.90;;;;;;5037591;28;19999;-71
2023/01/27 13:06:48;;;;;;;;;;;23.50;99.90;;;;;;5036947;28;20367;-71
2023/01/27 13:09:33;;;;;;;;;;;23.50;99.90;;;;;;5044692;28;19916;-71
2023/01/27 13:12:01;;;;;;;;;;;23.50;99.90;;;;;;5032536;28;21011;-72
2023/01/27 13:14:29;;;;;;;;;;;23.40;99.90;;;;;;5033704;28;19948;-71
2023/01/27 13:17:00;;;;;;;;;;;23.40;99.90;;;;;;5032752;28;19917;-72
2023/01/27 13:19:32;;;;;;;;;;;23.40;99.90;;;;;;5033674;28;19913;-71
2023/01/27 13:21:59;;;;;;;;;;;23.30;99.90;;;;;;5033066;28;19913;-71
2023/01/27 13:24:34;;;;;;;;;;;23.30;99.90;;;;;;5033178;28;20434;-71
2023/01/27 13:27:03;;;;;;;;;;;23.30;99.90;;;;;;5033135;28;19916;-71
2023/01/27 13:29:31;;;;;;;;;;;23.30;99.90;;;;;;5032474;28;19924;-72
2023/01/27 13:31:58;;;;;;;;;;;23.30;99.90;;;;;;5033137;28;19920;-72
2023/01/27 13:35:03;;;;;;;;;;;23.20;99.90;;;;;;5032405;28;19917;-72
2023/01/27 13:37:35;;;;;;;;;;;23.20;99.90;;;;;;4968323;28;19973;-71
2023/01/27 13:40:19;;;;;;;;;;;23.10;99.90;;;;;;4963427;28;19913;-72
2023/01/27 13:43:04;;;;;;;;;;;23.10;99.90;;;;;;4966036;28;19976;-71
2023/01/27 13:45:37;;;;;;;;;;;23.10;99.90;;;;;;4964790;28;20479;-70
2023/01/27 13:48:22;;;;;;;;;;;23.10;99.90;;;;;;4974225;28;20462;-72
2023/01/27 13:50:58;;;;;;;;;;;23.10;99.90;;;;;;5042807;28;19917;-72
2023/01/27 13:53:25;;;;;;;;;;;23.10;99.90;;;;;;5032918;28;19917;-72
2023/01/27 13:55:51;;;;;;;;;;;23.20;99.90;;;;;;5032913;28;19916;-72
2023/01/27 13:58:32;;;;;;;;;;;23.20;99.90;;;;;;5033483;28;19917;-72
2023/01/27 14:01:31;;;;;;;;;;;23.20;99.90;;;;;;5031663;28;20333;-71
2023/01/27 14:04:04;;;;;;;;;;;23.20;99.90;;;;;;5014480;28;20348;-72
2023/01/27 14:06:53;;;;;;;;;;;23.20;99.90;;;;;;5032065;28;19913;-72
2023/01/27 14:09:30;;;;;;;;;;;23.20;99.90;;;;;;5039663;28;20363;-72
2023/01/27 14:12:15;;;;;;;;;;;23.20;99.90;;;;;;5032834;28;19913;-72
2023/01/27 14:14:45;;;;;;;;;;;23.20;99.90;;;;;;5032523;28;20367;-70
2023/01/27 14:17:25;;;;;;;;;;;23.20;99.90;;;;;;5047181;28;20422;-70
2023/01/27 14:20:10;;;;;;;;;;;23.20;99.90;;;;;;5032521;28;19917;-72
2023/01/27 14:22:37;;;;;;;;;;;23.20;99.90;;;;;;5035058;28;19912;-71
2023/01/27 14:25:19;;;;;;;;;;;23.20;99.90;;;;;;5032322;28;19922;-71
2023/01/27 14:27:47;;;;;;;;;;;23.10;99.90;;;;;;5032154;28;19917;-72
2023/01/27 14:30:20;;;;;;;;;;;23.10;99.90;;;;;;5032388;28;20000;-70
2023/01/27 14:32:58;;;;;;;;;;;23.00;99.90;;;;;;5031998;28;20029;-71
2023/01/27 14:35:48;;;;;;;;;;;22.90;99.90;;;;;;5031664;28;19928;-71
2023/01/27 14:38:27;;;;;;;;;;;22.90;99.90;;;;;;5025070;28;19978;-71
2023/01/27 14:41:12;;;;;;;;;;;22.80;99.90;;;;;;5031726;28;19966;-70
2023/01/27 14:43:48;;;;;;;;;;;22.80;99.90;;;;;;5033469;28;19916;-70
2023/01/27 14:46:33;;;;;;;;;;;22.80;99.90;;;;;;5032338;28;19913;-70
2023/01/27 14:49:22;;;;;;;;;;;22.80;99.90;;;;;;5041561;28;19936;-70
2023/01/27 14:52:07;;;;;;;;;;;22.80;99.90;;;;;;5031800;28;20290;-71
2023/01/27 14:54:43;;;;;;;;;;;22.90;99.90;;;;;;5031758;28;19921;-70
2023/01/27 14:57:13;;;;;;;;;;;22.90;99.90;;;;;;5022648;28;20142;-71
2023/01/27 14:59:54;;;;;;;;;;;22.90;99.90;;;;;;5032117;28;20299;-71
2023/01/27 15:02:21;;;;;;;;;;;22.90;99.90;;;;;;5031702;28;19921;-71
2023/01/27 15:04:57;;;;;;;;;;;22.90;99.90;;;;;;5031796;28;19916;-72
2023/01/27 15:07:34;;;;;;;;;;;22.90;99.90;;;;;;5051479;28;20367;-71
2023/01/27 15:10:00;;;;;;;;;;;22.90;99.90;;;;;;5031771;28;19913;-70
2023/01/27 15:12:36;;;;;;;;;;;22.90;99.90;;;;;;5031949;28;20359;-70